Adams, OK

7:30 AM CST on December 21, 2014 (GMT -0600)
Guymon Municipal | Change Station
CLOSE
Current Station
Airport
Location: Guymon,
Elevation: 3123 ft
Nearby Weather Stations

Elev 3123 ft 36.68 °N, 101.51 °W | Updated 37 minutes ago

Overcast
Overcast
33 °F
Feels Like 26 °F
N
9
Wind Variable Wind from SSW

Today
High -- | Low -- °F
--% Chance of Precip.
Yesterday
High -- | Low -- °F
Precip. -- in
7:53 AM 5:31 PM
Waning Crescent, 0% visible
Pressure 29.86 in
Visibility 0.8 miles
Clouds
Windchill 26 °F
Dew Point 33 °F
Humidity 100%
Rainfall 0.00 in
Snow Depth Not available.
UV Not available.
Pollen .10 out of 12
Air Quality Not available.
Flu Activity Not available.
METAR KGUY 211253Z AUTO 21008KT 3/4SM BR VV003 01/01 A2984 RMK AO2 SLP109 T00060006

More Conditions Fewer Conditions

Pressure 29.86 in
Visibility 0.8 miles
Clouds
Windchill 26 °F
Dew Point 33 °F
Humidity 100%
Rainfall 0.00 in
Snow Depth Not available.
UV Not available.
Pollen .10 out of 12
Air Quality Not available.
Flu Activity Not available.
METAR KGUY 211253Z AUTO 21008KT 3/4SM BR VV003 01/01 A2984 RMK AO2 SLP109 T00060006

More Conditions Fewer Conditions

Nowcast | as of 5:51 am CST on December 21, 2014

Areas of patchy fog will impact most of the Texas and Oklahoma panhandles through 8 am this morning. Visibilities will generally range between 1 to 5 miles with isolated spots dropping as low as one quarter mile. Communities that can expect to be impacted by the lowest visibilities are Amarillo...Dumas...Guymon...Wheeler...and Miami. Use caution when traveling this morning as visibilities can vary greatly over short distances.

×

10-Day Weather Forecast

Almanac

Astronomy

Dec. 21, 2014 Rise Set
Actual Time
Civil Twilight
Nautical Twilight
Astronomical Twilight
Moon
Length of Visible Light
Length of Day
Tomorrow will be .
, % of the Moon is Illuminated

Today's Extremes

State Highs State Lows

Community

WunderPhotos

Upload Photos

1,779,386 photos uploaded!

WunderBlogs® & News

Nearby

Air Quality

  Air Quality AQ Index Pollutant
Not available.

Snow Depth

Station Depth Elevation

Earthquake Activity

City Distance Mag. Time & Date
Minimum magnitude displayed is 2.5.

Coastal Water Temperatures

Place Temperature

Nearby Weather Stations